Time;durP1;ratioP1;P1;durP2;ratioP2;P2;SDS_P1;SDS_P2;PMS_P1;PMS_P2;Temp;Humidity;BMP_temperature;BMP_pressure;BME280_temperature;BME280_humidity;BME280_pressure;Samples;Min_cycle;Max_cycle;Signal;HPM_P1;HPM_P2
2022/08/06 00:00:06;;;;;;;1.87;0.90;;;13.40;99.90;;;;;;5104200;27;20201;-49
2022/08/06 00:02:38;;;;;;;3.33;0.80;;;13.40;99.90;;;;;;5106271;28;20204;-51
2022/08/06 00:05:08;;;;;;;1.00;0.90;;;13.30;99.90;;;;;;5098810;27;20204;-52
2022/08/06 00:07:34;;;;;;;1.60;0.87;;;13.30;99.90;;;;;;5113166;27;20212;-48
2022/08/06 00:10:02;;;;;;;2.30;0.80;;;13.30;99.90;;;;;;5106248;27;20200;-51
2022/08/06 00:12:29;;;;;;;2.13;1.33;;;13.20;99.90;;;;;;5110263;27;20196;-52
2022/08/06 00:14:56;;;;;;;3.40;0.70;;;13.20;99.90;;;;;;5109104;27;20206;-51
2022/08/06 00:17:23;;;;;;;1.33;0.80;;;13.20;99.90;;;;;;5103587;27;20918;-55
2022/08/06 00:19:50;;;;;;;0.50;0.50;;;13.20;99.90;;;;;;5106503;27;20197;-54
2022/08/06 00:22:18;;;;;;;4.37;1.00;;;13.20;99.90;;;;;;5104047;27;20213;-55
2022/08/06 00:24:45;;;;;;;1.60;0.70;;;13.20;99.90;;;;;;5108440;27;20205;-46
2022/08/06 00:27:11;;;;;;;1.23;0.80;;;13.20;99.90;;;;;;5102036;27;20193;-51
2022/08/06 00:29:38;;;;;;;4.20;1.10;;;13.20;99.90;;;;;;5106365;28;20190;-48
2022/08/06 00:32:06;;;;;;;2.80;0.80;;;13.10;99.90;;;;;;5103482;27;20193;-53
2022/08/06 00:34:33;;;;;;;1.90;0.70;;;13.10;99.90;;;;;;5105117;27;20208;-52
2022/08/06 00:37:00;;;;;;;1.30;0.83;;;13.10;99.90;;;;;;5098919;27;20673;-51
2022/08/06 00:39:29;;;;;;;2.13;0.70;;;13.00;99.90;;;;;;5104164;27;20213;-50
2022/08/06 00:41:55;;;;;;;1.93;0.70;;;13.10;99.90;;;;;;5112119;27;20262;-52
2022/08/06 00:44:22;;;;;;;1.30;0.93;;;13.00;99.90;;;;;;5109005;27;20196;-51
2022/08/06 00:46:49;;;;;;;2.10;0.80;;;13.00;99.90;;;;;;5105833;27;20237;-49
2022/08/06 00:49:16;;;;;;;2.53;0.90;;;13.00;99.90;;;;;;5101542;27;20291;-50
2022/08/06 00:51:43;;;;;;;4.50;0.93;;;13.00;99.90;;;;;;5094989;27;20287;-51
2022/08/06 00:54:11;;;;;;;3.00;0.80;;;13.00;99.90;;;;;;5109580;27;20197;-52
2022/08/06 00:56:39;;;;;;;1.73;0.60;;;13.00;99.90;;;;;;5104364;27;20205;-50
2022/08/06 00:59:06;;;;;;;4.73;1.17;;;13.00;99.90;;;;;;5102594;27;20224;-53
2022/08/06 01:01:33;;;;;;;6.87;1.40;;;13.00;99.90;;;;;;5104777;27;20681;-49
2022/08/06 01:04:00;;;;;;;2.90;1.00;;;13.00;99.90;;;;;;5103528;27;20201;-55
2022/08/06 01:06:27;;;;;;;2.23;1.10;;;13.00;99.90;;;;;;5093858;27;20209;-51
2022/08/06 01:08:54;;;;;;;1.93;0.83;;;13.00;99.90;;;;;;5112146;27;20213;-52
2022/08/06 01:11:21;;;;;;;0.63;0.63;;;12.90;99.90;;;;;;5112585;27;20211;-50
2022/08/06 01:13:50;;;;;;;2.10;0.80;;;12.90;99.90;;;;;;5109967;27;20190;-51
2022/08/06 01:16:25;;;;;;;1.67;0.80;;;12.90;99.90;;;;;;5101203;28;20322;-54
2022/08/06 01:19:00;;;;;;;2.83;0.90;;;12.80;99.90;;;;;;5105240;28;20217;-52
2022/08/06 01:21:51;;;;;;;3.07;0.73;;;12.90;99.90;;;;;;5102971;27;20296;-52
2022/08/06 01:24:30;;;;;;;1.00;0.87;;;;;;;;;;5100136;27;20193;-49
2022/08/06 01:27:06;;;;;;;1.13;1.03;;;12.80;99.90;;;;;;5108329;27;20254;-53
2022/08/06 01:29:40;;;;;;;1.83;0.80;;;12.80;99.90;;;;;;5104332;27;20217;-52
2022/08/06 01:32:12;;;;;;;0.97;0.87;;;12.80;99.90;;;;;;5101708;28;20203;-52
2022/08/06 01:34:41;;;;;;;1.90;0.90;;;12.80;99.90;;;;;;5104665;28;20197;-49
2022/08/06 01:37:14;;;;;;;1.37;0.93;;;12.80;99.90;;;;;;5091732;27;20197;-52
2022/08/06 01:39:44;;;;;;;1.80;1.43;;;12.80;99.90;;;;;;5113967;27;20189;-50
2022/08/06 01:42:13;;;;;;;1.63;1.13;;;12.80;99.90;;;;;;5108891;27;20220;-51
2022/08/06 01:44:44;;;;;;;3.33;0.93;;;12.70;99.90;;;;;;5113222;27;20189;-51
2022/08/06 01:47:14;;;;;;;1.90;1.03;;;12.80;99.90;;;;;;5100612;28;20193;-49
2022/08/06 01:49:46;;;;;;;3.00;1.20;;;12.70;99.90;;;;;;5104828;28;20193;-50
2022/08/06 01:52:13;;;;;;;0.80;0.80;;;;;;;;;;5100686;28;20181;-50
2022/08/06 01:54:44;;;;;;;0.93;0.80;;;12.60;99.90;;;;;;5098215;27;20193;-49
2022/08/06 01:57:13;;;;;;;3.50;1.00;;;12.60;99.90;;;;;;5105882;27;20239;-54
2022/08/06 01:59:46;;;;;;;3.03;1.10;;;12.60;99.90;;;;;;5104602;28;20198;-50
2022/08/06 02:02:18;;;;;;;1.30;0.80;;;12.60;99.90;;;;;;5100409;27;20220;-49
2022/08/06 02:04:48;;;;;;;1.90;1.00;;;12.50;99.90;;;;;;5104023;27;20201;-49
2022/08/06 02:07:19;;;;;;;1.60;1.07;;;12.60;99.90;;;;;;5100174;28;20189;-52
2022/08/06 02:09:48;;;;;;;2.10;0.90;;;12.60;99.90;;;;;;5095575;27;20227;-51
2022/08/06 02:12:20;;;;;;;1.53;1.00;;;12.60;99.90;;;;;;5108815;27;20176;-47
2022/08/06 02:14:52;;;;;;;1.30;0.90;;;12.60;99.90;;;;;;5109108;27;20196;-50
2022/08/06 02:17:25;;;;;;;1.47;1.10;;;12.60;99.90;;;;;;5100734;28;20185;-47
2022/08/06 02:19:52;;;;;;;2.23;1.07;;;12.50;99.90;;;;;;5104011;28;20212;-50
2022/08/06 02:22:20;;;;;;;1.90;1.00;;;12.50;99.90;;;;;;5100595;28;20231;-52
2022/08/06 02:24:48;;;;;;;1.60;1.33;;;12.40;99.90;;;;;;5096917;28;20208;-51
2022/08/06 02:27:19;;;;;;;3.30;0.93;;;12.40;99.90;;;;;;5106801;27;20268;-52
2022/08/06 02:29:48;;;;;;;1.27;0.90;;;12.40;99.90;;;;;;5105708;27;20750;-50
2022/08/06 02:32:16;;;;;;;2.40;0.80;;;12.40;99.90;;;;;;5099927;28;20892;-52
2022/08/06 02:34:44;;;;;;;3.27;1.03;;;12.40;99.90;;;;;;5103670;28;20238;-49
2022/08/06 02:37:15;;;;;;;3.37;1.40;;;12.40;99.90;;;;;;5100098;28;20197;-55
2022/08/06 02:39:47;;;;;;;3.97;1.13;;;12.40;99.90;;;;;;5104258;28;20539;-50
2022/08/06 02:42:21;;;;;;;4.87;1.13;;;12.40;99.90;;;;;;5101384;28;20809;-52
2022/08/06 02:44:55;;;;;;;3.47;1.57;;;12.40;99.90;;;;;;5105803;28;20204;-52
2022/08/06 02:47:28;;;;;;;3.90;1.30;;;12.40;99.90;;;;;;5101009;28;20209;-48
2022/08/06 02:50:00;;;;;;;3.17;1.20;;;12.30;99.90;;;;;;5103099;28;20312;-52
2022/08/06 02:52:31;;;;;;;2.23;1.20;;;12.30;99.90;;;;;;5101847;28;20196;-53
2022/08/06 02:55:10;;;;;;;1.43;1.07;;;12.30;99.90;;;;;;5097428;28;20662;-52
2022/08/06 02:57:40;;;;;;;3.63;1.13;;;12.30;99.90;;;;;;5108388;28;20217;-48
2022/08/06 03:00:10;;;;;;;5.70;1.47;;;12.20;99.90;;;;;;5100518;28;20208;-54
2022/08/06 03:02:40;;;;;;;1.87;1.17;;;12.20;99.90;;;;;;5103900;28;20640;-52
2022/08/06 03:05:10;;;;;;;2.93;1.27;;;12.20;99.90;;;;;;5100209;28;20666;-51
2022/08/06 03:07:40;;;;;;;1.27;1.17;;;12.20;99.90;;;;;;5103851;28;20720;-49
2022/08/06 03:10:09;;;;;;;1.30;1.20;;;12.20;99.90;;;;;;5091106;28;20610;-54
2022/08/06 03:12:37;;;;;;;4.67;1.50;;;12.20;99.90;;;;;;5111817;28;20677;-52
2022/08/06 03:15:07;;;;;;;1.60;1.47;;;12.10;99.90;;;;;;5108698;28;20681;-51
2022/08/06 03:17:37;;;;;;;3.87;1.60;;;12.20;99.90;;;;;;5103255;28;20254;-47
2022/08/06 03:20:06;;;;;;;2.73;1.40;;;12.20;99.90;;;;;;5100937;28;20662;-51
2022/08/06 03:22:35;;;;;;;2.10;1.20;;;12.10;99.90;;;;;;5102806;28;20270;-51
2022/08/06 03:25:03;;;;;;;1.47;1.40;;;12.10;99.90;;;;;;5100901;28;20557;-53
2022/08/06 03:27:31;;;;;;;2.57;1.40;;;12.10;99.90;;;;;;5096334;28;20203;-49
2022/08/06 03:29:59;;;;;;;1.70;1.43;;;12.10;99.90;;;;;;5105664;28;20208;-50
2022/08/06 03:32:26;;;;;;;5.40;1.23;;;12.10;99.90;;;;;;5104339;27;20185;-50
2022/08/06 03:34:57;;;;;;;2.43;1.40;;;12.10;99.90;;;;;;5106555;27;20847;-54
2022/08/06 03:37:25;;;;;;;2.27;1.30;;;12.10;99.90;;;;;;5104671;28;20196;-52
2022/08/06 03:39:53;;;;;;;3.03;1.60;;;12.10;99.90;;;;;;5107084;27;20197;-53
2022/08/06 03:42:21;;;;;;;1.47;1.37;;;12.10;99.90;;;;;;5098959;27;20213;-49
2022/08/06 03:44:48;;;;;;;2.03;1.40;;;12.10;99.90;;;;;;5112625;27;20612;-52
2022/08/06 03:47:24;;;;;;;1.63;1.50;;;12.00;99.90;;;;;;5102803;27;20910;-50
2022/08/06 03:49:56;;;;;;;1.77;1.40;;;12.00;99.90;;;;;;5107096;27;20193;-51
2022/08/06 03:52:27;;;;;;;2.17;1.37;;;11.90;99.90;;;;;;5104315;27;20888;-50
2022/08/06 03:54:59;;;;;;;2.53;1.47;;;11.90;99.90;;;;;;5106012;27;20205;-50
2022/08/06 03:57:31;;;;;;;2.37;1.30;;;11.90;99.90;;;;;;5102489;27;20193;-53
2022/08/06 04:00:01;;;;;;;3.27;1.33;;;11.90;99.90;;;;;;5113649;27;20197;-51
2022/08/06 04:02:40;;;;;;;1.37;1.27;;;11.90;99.90;;;;;;5106712;27;20232;-50
2022/08/06 04:05:11;;;;;;;5.13;1.47;;;11.90;99.90;;;;;;5102950;27;20760;-54
2022/08/06 04:07:40;;;;;;;3.27;1.50;;;11.80;99.90;;;;;;5106526;27;20577;-51
2022/08/06 04:10:08;;;;;;;3.97;1.70;;;11.80;99.90;;;;;;5103529;27;20194;-55
2022/08/06 04:12:35;;;;;;;2.13;1.53;;;11.90;99.90;;;;;;5102082;27;20208;-52
2022/08/06 04:15:04;;;;;;;3.47;1.50;;;11.90;99.90;;;;;;5110293;27;20225;-54
2022/08/06 04:17:32;;;;;;;1.67;1.53;;;11.90;99.90;;;;;;5108947;27;20198;-51
2022/08/06 04:20:00;;;;;;;2.47;1.60;;;11.90;99.90;;;;;;5104903;28;20276;-51
2022/08/06 04:22:29;;;;;;;4.33;1.57;;;11.90;99.90;;;;;;5104391;27;20213;-50
2022/08/06 04:24:56;;;;;;;1.37;1.27;;;11.90;99.90;;;;;;5104913;27;20227;-54
2022/08/06 04:27:24;;;;;;;3.17;1.40;;;11.90;99.90;;;;;;5103583;27;20186;-50
2022/08/06 04:29:54;;;;;;;2.07;1.50;;;11.90;99.90;;;;;;5104727;27;20228;-53
2022/08/06 04:32:23;;;;;;;2.53;1.30;;;11.90;99.90;;;;;;5108547;27;20197;-51
2022/08/06 04:34:51;;;;;;;1.73;1.30;;;11.90;99.90;;;;;;5105795;28;20204;-51
2022/08/06 04:37:19;;;;;;;1.97;1.30;;;11.90;99.90;;;;;;5102163;27;20189;-52
2022/08/06 04:39:47;;;;;;;2.60;1.60;;;11.90;99.90;;;;;;5106076;27;20288;-52
2022/08/06 04:42:14;;;;;;;2.20;1.37;;;11.90;99.90;;;;;;5101609;27;20214;-53
2022/08/06 04:44:41;;;;;;;1.73;1.60;;;11.90;99.90;;;;;;5100495;27;20208;-52
2022/08/06 04:47:08;;;;;;;1.40;1.30;;;12.00;99.90;;;;;;5105330;27;20197;-50
2022/08/06 04:49:36;;;;;;;6.40;1.50;;;12.00;99.90;;;;;;5105676;27;20697;-49
2022/08/06 04:52:03;;;;;;;3.43;2.10;;;11.90;99.90;;;;;;5103565;27;20254;-52
2022/08/06 04:54:30;;;;;;;3.00;1.57;;;12.00;99.90;;;;;;5103995;27;20189;-51
2022/08/06 04:56:58;;;;;;;1.73;1.30;;;12.00;99.90;;;;;;5104636;27;20204;-50
2022/08/06 04:59:25;;;;;;;2.43;1.60;;;12.00;99.90;;;;;;5093423;27;20217;-52
2022/08/06 05:01:52;;;;;;;3.30;1.50;;;12.10;99.90;;;;;;5113918;27;20220;-52
2022/08/06 05:04:19;;;;;;;2.57;2.00;;;12.10;99.90;;;;;;5103934;27;20580;-52
2022/08/06 05:06:53;;;;;;;1.90;1.80;;;12.10;99.90;;;;;;5105646;28;20747;-51
2022/08/06 05:09:25;;;;;;;4.00;1.87;;;12.20;99.90;;;;;;5101944;27;20214;-52
2022/08/06 05:11:55;;;;;;;1.40;1.30;;;12.20;99.90;;;;;;5106352;27;20193;-51
2022/08/06 05:14:29;;;;;;;5.67;1.53;;;12.30;99.90;;;;;;5108727;27;20224;-49
2022/08/06 05:16:58;;;;;;;1.37;1.37;;;12.40;99.90;;;;;;5102806;27;20209;-52
2022/08/06 05:19:33;;;;;;;2.40;1.40;;;12.40;99.90;;;;;;5103105;28;20213;-52
2022/08/06 05:22:02;;;;;;;4.07;1.50;;;12.50;99.90;;;;;;5103204;27;20258;-50
2022/08/06 05:24:30;;;;;;;2.83;1.23;;;12.50;99.90;;;;;;5102971;27;20193;-50
2022/08/06 05:26:57;;;;;;;3.87;1.70;;;12.60;99.90;;;;;;5104198;28;20197;-52
2022/08/06 05:29:25;;;;;;;2.60;1.57;;;12.70;99.90;;;;;;5102294;28;20876;-49
2022/08/06 05:31:59;;;;;;;4.90;1.37;;;12.80;99.90;;;;;;5100098;27;20209;-50
2022/08/06 05:34:26;;;;;;;3.07;1.43;;;12.90;99.90;;;;;;5111343;27;20194;-49
2022/08/06 05:36:53;;;;;;;2.10;1.07;;;13.00;99.90;;;;;;5104837;27;20254;-52
2022/08/06 05:39:20;;;;;;;2.73;1.17;;;13.20;99.90;;;;;;5101164;27;20944;-53
2022/08/06 05:41:47;;;;;;;2.33;1.47;;;13.30;99.90;;;;;;5106480;27;20542;-49
2022/08/06 05:44:14;;;;;;;1.07;0.90;;;13.40;99.90;;;;;;5108809;27;20191;-52
2022/08/06 05:46:46;;;;;;;2.00;0.90;;;13.50;99.90;;;;;;5096587;27;20212;-48
2022/08/06 05:49:18;;;;;;;3.03;1.07;;;13.60;99.90;;;;;;5104268;27;20884;-50
2022/08/06 05:51:50;;;;;;;3.73;1.07;;;13.80;99.90;;;;;;5104597;27;20197;-51
2022/08/06 05:54:23;;;;;;;1.97;0.90;;;13.90;99.90;;;;;;5099968;28;20911;-52
2022/08/06 05:56:56;;;;;;;0.73;0.73;;;14.00;99.90;;;;;;5104681;27;20193;-52
2022/08/06 05:59:28;;;;;;;1.00;0.70;;;14.10;99.90;;;;;;5101714;27;20217;-48
2022/08/06 06:01:57;;;;;;;1.30;0.90;;;14.10;99.90;;;;;;5097998;27;20213;-50
2022/08/06 06:04:26;;;;;;;3.23;0.87;;;14.20;99.90;;;;;;5113665;27;20184;-48
2022/08/06 06:06:53;;;;;;;2.33;0.77;;;14.20;99.90;;;;;;5104203;27;20224;-52
2022/08/06 06:09:20;;;;;;;1.70;0.93;;;14.20;99.90;;;;;;5100241;28;20274;-50
2022/08/06 06:11:48;;;;;;;2.53;0.83;;;14.20;99.90;;;;;;5103605;28;20237;-54
2022/08/06 06:14:31;;;;;;;3.67;0.80;;;14.30;99.90;;;;;;5109605;27;20280;-50
2022/08/06 06:17:27;;;;;;;1.03;0.83;;;14.40;99.90;;;;;;5101007;27;20696;-52
2022/08/06 06:20:04;;;;;;;0.80;0.80;;;14.50;99.90;;;;;;5113773;27;20201;-52
2022/08/06 06:22:39;;;;;;;1.23;0.80;;;14.50;99.90;;;;;;5102741;28;20660;-51
2022/08/06 06:25:13;;;;;;;0.87;0.60;;;14.60;99.90;;;;;;5100551;28;20193;-51
2022/08/06 06:27:53;;;;;;;4.40;0.90;;;14.60;99.90;;;;;;5103546;28;20228;-50
2022/08/06 06:30:26;;;;;;;2.20;0.80;;;14.60;99.90;;;;;;5100349;28;20200;-54
2022/08/06 06:32:59;;;;;;;2.50;0.70;;;14.70;99.90;;;;;;5092955;28;20566;-53
2022/08/06 06:35:33;;;;;;;1.90;0.90;;;14.70;99.90;;;;;;5109414;27;20187;-48
2022/08/06 06:38:19;;;;;;;2.70;0.80;;;14.70;99.90;;;;;;5102022;28;20230;-51
2022/08/06 06:40:53;;;;;;;0.87;0.70;;;14.70;99.90;;;;;;5119772;28;20224;-51
2022/08/06 06:43:24;;;;;;;1.83;0.87;;;14.80;99.90;;;;;;5108582;28;20209;-52
2022/08/06 06:45:58;;;;;;;3.97;1.00;;;14.90;99.90;;;;;;5110699;28;20197;-51
2022/08/06 06:48:34;;;;;;;1.50;0.67;;;14.90;99.90;;;;;;5091631;28;20248;-50
2022/08/06 06:51:06;;;;;;;0.80;0.57;;;15.00;99.90;;;;;;5114950;28;20197;-53
2022/08/06 06:53:38;;;;;;;1.73;1.00;;;15.10;99.90;;;;;;5102684;28;20229;-52
2022/08/06 06:56:07;;;;;;;2.40;1.03;;;15.10;99.90;;;;;;5114953;28;20202;-53
2022/08/06 06:58:37;;;;;;;1.03;0.90;;;15.20;99.90;;;;;;5122892;28;20223;-49
2022/08/06 07:01:06;;;;;;;3.20;0.93;;;15.20;99.90;;;;;;5120804;28;20753;-53
2022/08/06 07:03:37;;;;;;;1.03;0.60;;;15.30;99.90;;;;;;5106683;28;20263;-48
2022/08/06 07:06:08;;;;;;;0.60;0.60;;;15.40;99.90;;;;;;5109147;27;20208;-52
2022/08/06 07:08:41;;;;;;;0.77;0.50;;;15.40;99.90;;;;;;5107307;27;20300;-49
2022/08/06 07:11:08;;;;;;;1.47;0.70;;;15.50;99.90;;;;;;5104678;27;20572;-53
2022/08/06 07:13:37;;;;;;;1.83;0.60;;;15.60;99.90;;;;;;5117104;27;20700;-51
2022/08/06 07:16:06;;;;;;;7.47;1.20;;;15.80;99.90;;;;;;5107477;27;20205;-50
2022/08/06 07:18:36;;;;;;;3.43;0.87;;;15.90;99.90;;;;;;5106863;27;20217;-50
2022/08/06 07:21:04;;;;;;;2.70;0.60;;;15.90;99.90;;;;;;5100821;27;20216;-51
2022/08/06 07:23:32;;;;;;;0.57;0.57;;;16.10;99.90;;;;;;5112531;27;20227;-50
2022/08/06 07:26:01;;;;;;;0.87;0.50;;;16.20;99.90;;;;;;5105721;27;20204;-52
2022/08/06 07:28:29;;;;;;;1.17;0.70;;;16.20;99.90;;;;;;5105580;28;20222;-52
2022/08/06 07:30:58;;;;;;;1.63;0.50;;;16.20;99.90;;;;;;5106414;28;20212;-51
2022/08/06 07:33:25;;;;;;;0.80;0.40;;;16.30;99.90;;;;;;5104776;27;20189;-52
2022/08/06 07:35:54;;;;;;;2.00;0.50;;;16.40;99.90;;;;;;5097628;27;20318;-53
2022/08/06 07:38:27;;;;;;;1.33;0.60;;;16.60;99.90;;;;;;5107915;27;20205;-52
2022/08/06 07:41:05;;;;;;;3.00;0.57;;;16.70;99.90;;;;;;5106947;28;20276;-51
2022/08/06 07:43:36;;;;;;;1.33;0.50;;;16.60;99.90;;;;;;5112939;27;20220;-48
2022/08/06 07:46:06;;;;;;;1.40;0.53;;;16.70;99.90;;;;;;5113385;27;20205;-53
2022/08/06 07:48:37;;;;;;;2.67;0.60;;;16.70;99.90;;;;;;5106386;27;20217;-51
2022/08/06 07:51:06;;;;;;;2.93;0.50;;;16.60;99.90;;;;;;5096544;27;20197;-52
2022/08/06 07:53:35;;;;;;;1.00;0.80;;;16.60;99.90;;;;;;5118902;27;20264;-48
2022/08/06 07:56:05;;;;;;;0.87;0.70;;;16.60;99.90;;;;;;5108019;27;20201;-52
2022/08/06 07:58:34;;;;;;;1.10;0.50;;;16.50;99.90;;;;;;5105704;28;20217;-52
2022/08/06 08:01:02;;;;;;;2.83;0.60;;;16.60;99.90;;;;;;5105259;27;20212;-54
2022/08/06 08:06:21;;;;;;;1.37;0.40;;;16.70;99.90;;;;;;5102758;27;20185;-50
2022/08/06 08:08:49;;;;;;;2.10;0.60;;;16.70;99.90;;;;;;5098288;27;20221;-47
2022/08/06 08:11:17;;;;;;;0.77;0.50;;;16.70;99.90;;;;;;5109492;27;20254;-47
2022/08/06 08:13:44;;;;;;;1.07;0.50;;;16.80;99.90;;;;;;5111341;27;20254;-55
2022/08/06 08:16:14;;;;;;;1.73;0.40;;;16.90;99.90;;;;;;5108295;27;20201;-51
2022/08/06 08:18:41;;;;;;;1.80;0.63;;;16.90;99.90;;;;;;5126129;27;20229;-47
2022/08/06 08:21:10;;;;;;;1.47;0.70;;;17.00;99.90;;;;;;5122948;27;20218;-50
2022/08/06 08:23:41;;;;;;;0.90;0.40;;;17.10;99.90;;;;;;5099095;27;20213;-53
2022/08/06 08:26:09;;;;;;;1.80;0.50;;;17.20;99.90;;;;;;5113116;27;20201;-54
2022/08/06 08:28:36;;;;;;;2.80;0.50;;;17.30;99.90;;;;;;5106202;27;20213;-51
2022/08/06 08:31:05;;;;;;;0.30;0.20;;;17.30;99.90;;;;;;5103896;27;20202;-51
2022/08/06 08:33:32;;;;;;;3.73;0.73;;;17.30;99.90;;;;;;5104940;27;20189;-47
2022/08/06 08:36:01;;;;;;;1.23;0.57;;;17.40;99.90;;;;;;5104523;27;20200;-50
2022/08/06 08:38:29;;;;;;;3.03;0.60;;;17.40;99.90;;;;;;5093153;27;20230;-51
2022/08/06 08:41:01;;;;;;;2.43;0.47;;;17.50;99.90;;;;;;5113403;27;20193;-49
2022/08/06 08:43:34;;;;;;;0.67;0.40;;;17.50;99.90;;;;;;5114252;27;20292;-51
2022/08/06 08:46:03;;;;;;;1.37;0.40;;;17.60;99.90;;;;;;5106906;27;20293;-50
2022/08/06 08:48:32;;;;;;;1.60;0.50;;;17.70;99.90;;;;;;5104510;27;20947;-50
2022/08/06 08:51:00;;;;;;;0.83;0.40;;;17.90;99.90;;;;;;5104348;27;20196;-52
2022/08/06 08:53:35;;;;;;;1.33;0.30;;;17.90;99.90;;;;;;5091250;27;22280;-52
2022/08/06 08:56:04;;;;;;;2.07;0.40;;;18.00;99.90;;;;;;5115349;27;20231;-51
2022/08/06 08:58:36;;;;;;;1.50;0.37;;;17.90;99.90;;;;;;5106911;27;20209;-47
2022/08/06 09:01:08;;;;;;;1.17;0.50;;;18.00;99.90;;;;;;5103430;27;20208;-50
2022/08/06 09:03:36;;;;;;;1.20;0.50;;;18.10;99.90;;;;;;5104816;27;20221;-47
2022/08/06 09:06:03;;;;;;;0.73;0.30;;;18.20;99.90;;;;;;5103116;27;20197;-52
2022/08/06 09:08:31;;;;;;;0.40;0.40;;;18.30;99.90;;;;;;5104061;27;21034;-53
2022/08/06 09:10:59;;;;;;;1.30;0.47;;;18.50;99.90;;;;;;5100998;27;20658;-52
2022/08/06 09:13:27;;;;;;;0.93;0.30;;;18.50;99.90;;;;;;5104895;27;20978;-53
2022/08/06 09:15:55;;;;;;;1.77;0.63;;;18.50;99.90;;;;;;5114011;27;20554;-52
2022/08/06 09:18:23;;;;;;;2.20;0.40;;;18.40;99.90;;;;;;5102013;28;20216;-54
2022/08/06 09:20:50;;;;;;;0.53;0.30;;;18.40;99.90;;;;;;5105263;27;20232;-52
2022/08/06 09:23:18;;;;;;;1.03;0.43;;;18.50;99.90;;;;;;5100715;27;20217;-54
2022/08/06 09:25:47;;;;;;;0.83;0.83;;;18.70;99.90;;;;;;5095775;27;20205;-49
2022/08/06 09:28:38;;;;;;;2.23;0.53;;;18.70;99.90;;;;;;5106839;27;20209;-54
2022/08/06 09:31:08;;;;;;;1.90;0.80;;;18.70;99.90;;;;;;5118017;27;20196;-50
2022/08/06 09:33:38;;;;;;;3.13;0.70;;;18.70;99.90;;;;;;5123933;27;20273;-53
2022/08/06 09:36:07;;;;;;;0.87;0.30;;;18.60;99.90;;;;;;5121945;27;20196;-55
2022/08/06 09:38:46;;;;;;;1.03;0.30;;;18.60;99.90;;;;;;5124093;27;20247;-50
2022/08/06 09:41:14;;;;;;;0.80;0.40;;;18.50;99.90;;;;;;5104557;27;20185;-51
2022/08/06 09:43:44;;;;;;;2.50;0.70;;;18.50;99.90;;;;;;5111497;27;20299;-54
2022/08/06 09:46:11;;;;;;;1.10;0.40;;;18.50;99.90;;;;;;5107143;27;20205;-53
2022/08/06 09:48:37;;;;;;;0.87;0.40;;;18.40;99.90;;;;;;5104921;28;20217;-54
2022/08/06 09:51:05;;;;;;;2.27;0.53;;;18.40;99.90;;;;;;5102210;28;20201;-51
2022/08/06 09:53:32;;;;;;;0.90;0.50;;;18.20;99.90;;;;;;5103353;27;20653;-48
2022/08/06 09:55:59;;;;;;;2.20;0.53;;;18.10;99.90;;;;;;5093793;27;20205;-53
2022/08/06 09:58:35;;;;;;;2.73;0.70;;;18.00;99.90;;;;;;5105127;27;20208;-52
2022/08/06 10:01:17;;;;;;;1.33;0.50;;;17.90;99.90;;;;;;5102490;27;20287;-52
2022/08/06 10:03:45;;;;;;;2.20;0.60;;;17.90;99.90;;;;;;5119161;27;20688;-50
2022/08/06 10:06:13;;;;;;;1.27;0.60;;;17.90;99.90;;;;;;5120067;27;20192;-50
2022/08/06 10:08:42;;;;;;;2.57;0.60;;;17.90;99.90;;;;;;5124049;27;20236;-50
2022/08/06 10:11:08;;;;;;;0.77;0.40;;;17.90;99.90;;;;;;5109031;27;20591;-54
2022/08/06 10:13:37;;;;;;;1.60;0.60;;;18.00;99.90;;;;;;5115080;27;20241;-53
2022/08/06 10:16:18;;;;;;;3.93;0.70;;;18.10;99.90;;;;;;5105064;27;20658;-52
2022/08/06 10:18:46;;;;;;;1.80;0.70;;;18.10;99.90;;;;;;5104150;28;20269;-52
2022/08/06 10:21:14;;;;;;;0.57;0.50;;;18.20;99.90;;;;;;5100191;28;20433;-52
2022/08/06 10:23:44;;;;;;;3.03;0.80;;;18.20;99.90;;;;;;5103726;28;20228;-53
2022/08/06 10:26:12;;;;;;;0.70;0.60;;;18.10;99.90;;;;;;5088812;27;20203;-50
2022/08/06 10:28:41;;;;;;;2.30;0.90;;;18.20;99.90;;;;;;5110845;27;20209;-48
2022/08/06 10:31:11;;;;;;;4.03;1.07;;;18.30;99.90;;;;;;5101971;28;20221;-52
2022/08/06 10:33:44;;;;;;;4.57;1.37;;;18.30;99.90;;;;;;5103541;28;20704;-51
2022/08/06 10:36:14;;;;;;;4.37;1.43;;;18.30;99.90;;;;;;5100091;28;20615;-53
2022/08/06 10:38:45;;;;;;;2.03;1.13;;;18.30;99.90;;;;;;5103978;28;20574;-53
2022/08/06 10:41:13;;;;;;;3.23;1.83;;;18.20;99.90;;;;;;5100269;27;20204;-54
2022/08/06 10:43:41;;;;;;;5.07;1.50;;;18.10;99.90;;;;;;5112109;27;20229;-52
2022/08/06 10:46:10;;;;;;;1.20;1.10;;;18.10;99.90;;;;;;5114801;27;20194;-50
2022/08/06 10:48:40;;;;;;;2.33;1.47;;;18.30;99.90;;;;;;5108251;27;20217;-50
2022/08/06 10:51:09;;;;;;;2.23;1.30;;;18.50;99.90;;;;;;5105049;27;20207;-54
2022/08/06 10:53:38;;;;;;;3.67;1.90;;;18.70;99.90;;;;;;5107568;28;20197;-50
2022/08/06 10:56:08;;;;;;;3.23;1.63;;;18.90;99.90;;;;;;5105132;27;20193;-54
2022/08/06 10:58:36;;;;;;;1.93;1.73;;;19.00;99.90;;;;;;5102534;27;20696;-51
2022/08/06 11:01:06;;;;;;;2.73;2.17;;;19.10;99.10;;;;;;5111253;27;20197;-52
2022/08/06 11:03:47;;;;;;;3.10;2.80;;;19.20;98.30;;;;;;5106652;27;20607;-51
2022/08/06 11:06:37;;;;;;;2.20;2.00;;;19.20;98.20;;;;;;5103685;27;20201;-55
2022/08/06 11:09:30;;;;;;;4.37;2.43;;;19.30;95.80;;;;;;5118604;27;20277;-51
2022/08/06 11:12:10;;;;;;;4.20;2.33;;;19.40;97.00;;;;;;5124247;27;20790;-54
2022/08/06 11:14:39;;;;;;;3.83;2.80;;;19.50;96.40;;;;;;5103157;27;20189;-53
2022/08/06 11:17:07;;;;;;;4.50;2.50;;;19.50;96.10;;;;;;5118111;27;20197;-54
2022/08/06 11:19:44;;;;;;;4.73;3.23;;;19.40;96.20;;;;;;5106965;27;20213;-49
2022/08/06 11:22:32;;;;;;;4.50;3.03;;;19.30;96.30;;;;;;5103295;28;20276;-52
2022/08/06 11:25:00;;;;;;;3.90;2.43;;;19.30;94.30;;;;;;5104962;28;20267;-54
2022/08/06 11:27:49;;;;;;;3.07;2.37;;;19.30;95.30;;;;;;5105092;28;20193;-50
2022/08/06 11:30:17;;;;;;;2.90;2.70;;;19.40;94.10;;;;;;5092893;27;20305;-51
2022/08/06 11:32:45;;;;;;;4.23;2.83;;;19.50;94.90;;;;;;5111575;27;20545;-50
2022/08/06 11:35:45;;;;;;;2.90;2.60;;;19.60;94.60;;;;;;5102924;27;20399;-47
2022/08/06 11:38:14;;;;;;;2.90;2.60;;;19.80;93.90;;;;;;5102856;27;20220;-53
2022/08/06 11:40:58;;;;;;;3.03;2.73;;;19.90;93.40;;;;;;5107266;27;20242;-49
2022/08/06 11:43:47;;;;;;;3.73;2.67;;;20.00;92.90;;;;;;5108842;27;20204;-50
2022/08/06 11:46:25;;;;;;;4.13;2.60;;;20.20;92.10;;;;;;5094291;27;20262;-51
2022/08/06 11:49:13;;;;;;;2.93;1.93;;;20.20;91.80;;;;;;5112900;27;20216;-50
2022/08/06 11:51:42;;;;;;;3.73;2.13;;;20.10;87.30;;;;;;5120495;27;20279;-47
2022/08/06 11:54:14;;;;;;;3.57;2.40;;;20.10;90.00;;;;;;5122329;27;20201;-51
2022/08/06 11:57:19;;;;;;;5.87;2.37;;;20.10;88.30;;;;;;5126801;27;20208;-51
2022/08/06 12:00:01;;;;;;;2.90;2.70;;;20.00;86.60;;;;;;5126581;27;20196;-51
2022/08/06 12:02:58;;;;;;;2.77;1.93;;;20.10;88.60;;;;;;5115948;27;20534;-54
2022/08/06 12:05:35;;;;;;;3.50;2.27;;;20.20;84.60;;;;;;5103690;27;20221;-53
2022/08/06 12:08:18;;;;;;;5.37;2.40;;;20.20;82.50;;;;;;5118532;27;20277;-52
2022/08/06 12:11:29;;;;;;;4.03;2.63;;;20.40;84.40;;;;;;5126214;27;20204;-52
2022/08/06 12:13:57;;;;;;;2.70;2.50;;;20.50;83.40;;;;;;5099816;27;20708;-52
2022/08/06 12:16:33;;;;;;;4.77;2.60;;;20.70;83.00;;;;;;5102772;27;20212;-53
2022/08/06 12:19:01;;;;;;;2.67;2.30;;;20.70;82.60;;;;;;5109267;27;20240;-53
2022/08/06 12:21:28;;;;;;;5.37;3.00;;;20.70;81.20;;;;;;5107389;27;20193;-49
2022/08/06 12:23:57;;;;;;;2.90;2.70;;;20.60;78.90;;;;;;5104714;27;20231;-52
2022/08/06 12:26:24;;;;;;;3.77;2.93;;;20.40;79.40;;;;;;5103761;27;20201;-50
2022/08/06 12:28:51;;;;;;;3.33;3.03;;;20.40;79.50;;;;;;5106352;27;20803;-49
2022/08/06 12:31:32;;;;;;;3.30;3.10;;;20.40;80.20;;;;;;5102506;28;20202;-54
2022/08/06 12:33:59;;;;;;;4.80;3.37;;;20.50;80.20;;;;;;5100576;27;20666;-53
2022/08/06 12:36:29;;;;;;;3.30;3.00;;;20.50;80.40;;;;;;5105731;27;20193;-53
2022/08/06 12:38:59;;;;;;;3.43;3.13;;;20.50;80.50;;;;;;5115581;27;20217;-50
2022/08/06 12:41:34;;;;;;;3.47;3.17;;;20.60;78.20;;;;;;5104062;27;20189;-50
2022/08/06 12:44:01;;;;;;;5.00;3.20;;;20.70;78.00;;;;;;5107435;27;20208;-51
2022/08/06 12:46:29;;;;;;;3.30;3.00;;;20.80;78.20;;;;;;5109628;27;20188;-49
2022/08/06 12:48:56;;;;;;;3.57;3.27;;;21.00;76.30;;;;;;5096283;27;20217;-50
2022/08/06 12:51:23;;;;;;;3.63;3.37;;;21.10;76.00;;;;;;5109434;27;20204;-48
2022/08/06 12:53:52;;;;;;;3.70;3.33;;;21.30;76.80;;;;;;5105352;27;20205;-51
2022/08/06 12:56:22;;;;;;;3.95;3.42;;;21.30;77.30;;;;;;5102155;27;20193;-50
2022/08/06 12:58:51;;;;;;;4.05;3.60;;;21.20;77.10;;;;;;5105658;28;20217;-53
2022/08/06 13:01:21;;;;;;;5.23;4.07;;;21.20;77.20;;;;;;5101884;28;20906;-48
2022/08/06 13:03:51;;;;;;;5.73;3.63;;;21.10;77.80;;;;;;5096487;27;20208;-52
2022/08/06 13:06:20;;;;;;;4.03;3.72;;;20.90;76.20;;;;;;5112889;27;20212;-54
2022/08/06 13:08:49;;;;;;;5.03;3.50;;;20.70;76.50;;;;;;5105546;27;20271;-48